Time;durP1;ratioP1;P1;durP2;ratioP2;P2;SDS_P1;SDS_P2;PMS_P1;PMS_P2;Temp;Humidity;BMP_temperature;BMP_pressure;BME280_temperature;BME280_humidity;BME280_pressure;Samples;Min_cycle;Max_cycle;Signal;HPM_P1;HPM_P2
2022/09/10 00:00:57;;;;;;;14.48;12.02;;;14.30;99.90;;;;;;5113281;27;20094;-67
2022/09/10 00:03:23;;;;;;;17.02;11.55;;;14.30;99.90;;;;;;5112352;27;20413;-67
2022/09/10 00:05:49;;;;;;;13.38;11.95;;;14.30;99.90;;;;;;5115059;27;20079;-65
2022/09/10 00:08:15;;;;;;;12.27;11.05;;;14.30;99.90;;;;;;5115467;27;20071;-67
2022/09/10 00:10:43;;;;;;;12.98;11.68;;;14.20;99.90;;;;;;5115882;27;20039;-66
2022/09/10 00:13:10;;;;;;;13.70;12.30;;;14.20;99.90;;;;;;5107097;28;20047;-63
2022/09/10 00:15:40;;;;;;;14.93;13.27;;;14.20;99.90;;;;;;5109989;28;20489;-67
2022/09/10 00:18:07;;;;;;;14.57;12.63;;;14.20;99.90;;;;;;5120930;27;20505;-67
2022/09/10 00:20:34;;;;;;;13.73;12.30;;;14.20;99.90;;;;;;5118180;27;20040;-66
2022/09/10 00:23:00;;;;;;;14.35;12.80;;;14.20;99.90;;;;;;5126843;27;20827;-68
2022/09/10 00:25:29;;;;;;;14.68;12.80;;;14.20;99.90;;;;;;5111850;28;20806;-67
2022/09/10 00:27:54;;;;;;;15.10;13.43;;;14.20;99.90;;;;;;5094832;28;20055;-65
2022/09/10 00:30:21;;;;;;;14.45;11.75;;;14.10;99.90;;;;;;5111419;28;20437;-67
2022/09/10 00:32:51;;;;;;;15.30;13.70;;;14.10;99.90;;;;;;5116386;27;20040;-67
2022/09/10 00:35:18;;;;;;;14.93;13.55;;;14.10;99.90;;;;;;5092613;28;20050;-67
2022/09/10 00:37:43;;;;;;;15.20;13.60;;;14.10;99.90;;;;;;5130931;27;20059;-67
2022/09/10 00:40:10;;;;;;;17.77;14.27;;;14.10;99.90;;;;;;5113931;27;20111;-68
2022/09/10 00:42:35;;;;;;;15.48;13.70;;;14.10;99.90;;;;;;5109835;28;20039;-67
2022/09/10 00:45:03;;;;;;;15.35;13.75;;;14.10;99.90;;;;;;5111233;28;20039;-67
2022/09/10 00:47:34;;;;;;;16.50;14.50;;;14.10;99.90;;;;;;5132093;27;20074;-66
2022/09/10 00:50:12;;;;;;;16.30;14.52;;;14.10;99.90;;;;;;5118433;27;20408;-65
2022/09/10 00:52:38;;;;;;;21.35;14.32;;;14.10;99.90;;;;;;5095615;28;20535;-64
2022/09/10 00:55:04;;;;;;;19.15;14.93;;;14.10;99.90;;;;;;5120331;27;20040;-68
2022/09/10 00:57:30;;;;;;;17.17;15.20;;;14.10;99.90;;;;;;5131121;27;20080;-65
2022/09/10 01:00:04;;;;;;;17.77;15.05;;;14.10;99.90;;;;;;5123146;27;20059;-65
2022/09/10 01:02:30;;;;;;;17.25;15.23;;;14.10;99.90;;;;;;5108021;28;20044;-67
2022/09/10 01:04:57;;;;;;;17.08;14.48;;;14.10;99.90;;;;;;5094439;28;20104;-67
2022/09/10 01:07:25;;;;;;;22.17;16.50;;;14.20;99.90;;;;;;5116952;27;20073;-66
2022/09/10 01:09:51;;;;;;;19.80;16.77;;;14.20;99.90;;;;;;5110931;27;20393;-66
2022/09/10 01:12:56;;;;;;;18.73;16.30;;;14.20;99.90;;;;;;5099260;28;20062;-65
2022/09/10 01:15:42;;;;;;;18.70;15.57;;;14.20;99.90;;;;;;5032482;28;20100;-67
2022/09/10 01:18:20;;;;;;;19.40;16.17;;;14.20;99.90;;;;;;5033686;28;20483;-66
2022/09/10 01:21:15;;;;;;;18.95;16.85;;;14.30;99.90;;;;;;5031427;28;20053;-67
2022/09/10 01:24:04;;;;;;;22.95;18.13;;;14.30;99.90;;;;;;5032213;28;20087;-67
2022/09/10 01:26:55;;;;;;;23.15;18.88;;;14.40;99.90;;;;;;5031678;28;20049;-66
2022/09/10 01:29:26;;;;;;;24.52;18.92;;;14.40;99.90;;;;;;5032955;28;20041;-66
2022/09/10 01:31:58;;;;;;;20.83;18.43;;;14.40;99.90;;;;;;5048573;28;20037;-65
2022/09/10 01:34:44;;;;;;;25.33;18.40;;;14.40;99.90;;;;;;5032518;28;20048;-68
2022/09/10 01:37:20;;;;;;;22.58;18.70;;;14.50;99.90;;;;;;5031500;28;20036;-68
2022/09/10 01:39:47;;;;;;;20.92;16.77;;;14.50;99.90;;;;;;5015608;28;20053;-65
2022/09/10 01:42:14;;;;;;;19.80;16.83;;;14.40;99.90;;;;;;5031412;28;20037;-69
2022/09/10 01:44:50;;;;;;;19.25;17.25;;;14.50;99.90;;;;;;5031089;28;20045;-66
2022/09/10 01:47:53;;;;;;;21.63;17.88;;;14.50;99.90;;;;;;5106507;28;20096;-66
2022/09/10 01:50:43;;;;;;;22.35;18.08;;;14.50;99.90;;;;;;5095898;28;20479;-65
2022/09/10 01:53:39;;;;;;;19.00;17.00;;;14.50;99.90;;;;;;5106968;28;20505;-66
2022/09/10 01:56:29;;;;;;;19.35;15.60;;;14.40;99.90;;;;;;5107507;28;20048;-67
2022/09/10 01:59:02;;;;;;;21.02;17.83;;;14.40;99.90;;;;;;5109483;28;20100;-67
2022/09/10 02:01:44;;;;;;;17.77;15.90;;;14.40;99.90;;;;;;5091842;28;20054;-65
2022/09/10 02:04:13;;;;;;;18.13;16.23;;;14.40;99.90;;;;;;5106962;28;20144;-66
2022/09/10 02:06:43;;;;;;;18.00;16.10;;;14.40;99.90;;;;;;5107964;28;20035;-66
2022/09/10 02:09:11;;;;;;;21.50;16.90;;;14.40;99.90;;;;;;5106771;28;20035;-67
2022/09/10 02:11:53;;;;;;;20.02;17.08;;;14.40;99.90;;;;;;5110881;28;20039;-67
2022/09/10 02:14:20;;;;;;;18.85;16.77;;;14.40;99.90;;;;;;5090963;28;20060;-65
2022/09/10 02:16:57;;;;;;;20.05;16.95;;;14.40;99.90;;;;;;5107121;28;20051;-66
2022/09/10 02:19:25;;;;;;;17.58;15.63;;;14.40;99.90;;;;;;5109403;28;20055;-65
2022/09/10 02:21:52;;;;;;;21.48;16.30;;;14.40;99.90;;;;;;5129771;27;20039;-67
2022/09/10 02:24:18;;;;;;;19.67;16.15;;;14.40;99.90;;;;;;5127285;27;20031;-66
2022/09/10 02:26:45;;;;;;;20.15;17.08;;;14.40;99.90;;;;;;5112254;27;20039;-66
2022/09/10 02:29:12;;;;;;;19.98;15.90;;;14.50;99.90;;;;;;5111544;27;20046;-65
2022/09/10 02:31:39;;;;;;;20.00;16.80;;;14.50;99.90;;;;;;5117238;27;20063;-66
2022/09/10 02:34:05;;;;;;;22.00;16.80;;;14.40;99.90;;;;;;5110115;28;20069;-66
2022/09/10 02:36:31;;;;;;;18.98;16.08;;;14.40;99.90;;;;;;5109970;28;20417;-67
2022/09/10 02:39:02;;;;;;;21.60;15.55;;;14.40;99.90;;;;;;5129201;27;20042;-65
2022/09/10 02:41:28;;;;;;;19.15;15.35;;;14.50;99.90;;;;;;5106352;28;20458;-67
2022/09/10 02:43:54;;;;;;;19.17;15.95;;;14.50;99.90;;;;;;5126548;27;20040;-66
2022/09/10 02:46:20;;;;;;;22.75;15.98;;;14.50;99.90;;;;;;5090576;28;20048;-67
2022/09/10 02:48:45;;;;;;;20.17;15.57;;;14.50;99.90;;;;;;5108449;28;20138;-68
2022/09/10 02:51:11;;;;;;;19.98;16.85;;;14.50;99.90;;;;;;5111123;27;20118;-66
2022/09/10 02:53:38;;;;;;;19.60;16.40;;;14.40;99.90;;;;;;5129965;27;20031;-64
2022/09/10 02:56:04;;;;;;;22.92;17.10;;;14.50;99.90;;;;;;5110577;27;20046;-66
2022/09/10 02:58:30;;;;;;;20.00;16.45;;;14.40;99.90;;;;;;5107007;28;20049;-67
2022/09/10 03:01:07;;;;;;;18.63;15.45;;;14.40;99.90;;;;;;5111827;27;20040;-67
2022/09/10 03:03:33;;;;;;;23.77;17.40;;;14.50;99.90;;;;;;5108834;28;20074;-65
2022/09/10 03:05:59;;;;;;;22.83;18.10;;;14.40;99.90;;;;;;5109758;28;20080;-66
2022/09/10 03:08:25;;;;;;;22.40;17.58;;;14.40;99.90;;;;;;5117878;27;20035;-66
2022/09/10 03:10:51;;;;;;;23.05;17.50;;;14.40;99.90;;;;;;5111869;27;20046;-65
2022/09/10 03:13:17;;;;;;;19.90;17.15;;;14.50;99.90;;;;;;5099839;28;20505;-65
2022/09/10 03:15:42;;;;;;;17.52;15.65;;;14.50;99.90;;;;;;5092515;28;20142;-67
2022/09/10 03:18:08;;;;;;;24.88;17.05;;;14.50;99.90;;;;;;5120537;27;20091;-67
2022/09/10 03:20:35;;;;;;;21.52;16.60;;;14.60;99.90;;;;;;5110300;27;20043;-67
2022/09/10 03:23:02;;;;;;;22.67;16.77;;;14.50;99.90;;;;;;5107573;28;20031;-65
2022/09/10 03:25:28;;;;;;;22.10;16.42;;;14.60;99.90;;;;;;5116866;27;20067;-67
2022/09/10 03:27:54;;;;;;;22.83;17.38;;;14.60;99.90;;;;;;5106091;28;20032;-66
2022/09/10 03:30:20;;;;;;;19.30;15.70;;;14.60;99.90;;;;;;5107143;28;20516;-67
2022/09/10 03:32:47;;;;;;;19.73;16.42;;;14.60;99.90;;;;;;5111036;27;20497;-66
2022/09/10 03:35:12;;;;;;;22.92;16.48;;;14.60;99.90;;;;;;5113829;28;20074;-68
2022/09/10 03:37:39;;;;;;;24.10;15.85;;;14.60;99.90;;;;;;5127402;27;20481;-67
2022/09/10 03:40:06;;;;;;;21.95;16.38;;;14.60;99.90;;;;;;5118289;27;20055;-65
2022/09/10 03:42:32;;;;;;;21.52;15.20;;;14.60;99.90;;;;;;5125148;28;20036;-66
2022/09/10 03:44:57;;;;;;;21.63;16.15;;;14.60;99.90;;;;;;5114751;28;20047;-66
2022/09/10 03:47:23;;;;;;;21.48;15.80;;;14.60;99.90;;;;;;5110621;28;20055;-67
2022/09/10 03:49:50;;;;;;;20.33;15.80;;;14.60;99.90;;;;;;5111350;28;20070;-67
2022/09/10 03:52:16;;;;;;;18.88;15.77;;;14.60;99.90;;;;;;5092483;28;20120;-67
2022/09/10 03:54:44;;;;;;;23.45;16.45;;;14.70;99.90;;;;;;5104092;28;20039;-67
2022/09/10 03:57:10;;;;;;;22.85;16.50;;;14.70;99.90;;;;;;5121083;28;20048;-66
2022/09/10 03:59:38;;;;;;;21.52;16.10;;;14.70;99.90;;;;;;5124016;28;20050;-68
2022/09/10 04:02:03;;;;;;;25.58;17.00;;;14.70;99.90;;;;;;5107304;28;20047;-67
2022/09/10 04:04:30;;;;;;;20.40;16.45;;;14.70;99.90;;;;;;5106700;28;20039;-65
2022/09/10 04:06:56;;;;;;;26.02;16.35;;;14.70;99.90;;;;;;5090336;28;20043;-66
2022/09/10 04:09:22;;;;;;;27.65;17.17;;;14.70;99.90;;;;;;5116658;28;20500;-67
2022/09/10 04:11:47;;;;;;;24.00;18.08;;;14.70;99.90;;;;;;5104088;28;20036;-65
2022/09/10 04:14:14;;;;;;;24.13;17.33;;;14.70;99.90;;;;;;5106179;28;20696;-66
2022/09/10 04:16:40;;;;;;;25.55;16.80;;;14.70;99.90;;;;;;5106072;27;20486;-66
2022/09/10 04:19:06;;;;;;;24.13;17.10;;;14.70;99.90;;;;;;5110366;28;20413;-67
2022/09/10 04:21:31;;;;;;;24.88;17.60;;;14.70;99.90;;;;;;5105921;28;20039;-67
2022/09/10 04:23:59;;;;;;;22.80;16.45;;;14.70;99.90;;;;;;5112458;28;20032;-67
2022/09/10 04:26:25;;;;;;;27.85;17.35;;;14.70;99.90;;;;;;5115429;27;20078;-64
2022/09/10 04:28:52;;;;;;;26.98;16.98;;;14.70;99.90;;;;;;5128807;28;20059;-67
2022/09/10 04:31:18;;;;;;;19.08;15.60;;;14.70;99.90;;;;;;5106886;28;20048;-66
2022/09/10 04:33:44;;;;;;;23.23;16.50;;;14.70;99.90;;;;;;5120226;27;20046;-64
2022/09/10 04:36:11;;;;;;;21.92;16.20;;;14.70;99.90;;;;;;5113726;27;20126;-65
2022/09/10 04:38:40;;;;;;;21.45;15.60;;;14.70;99.90;;;;;;5112896;28;20086;-67
2022/09/10 04:41:06;;;;;;;23.23;16.52;;;14.70;99.90;;;;;;5092261;28;20052;-66
2022/09/10 04:43:32;;;;;;;25.92;16.35;;;14.70;99.90;;;;;;5125736;27;20154;-67
2022/09/10 04:45:58;;;;;;;21.38;16.50;;;14.60;99.90;;;;;;5111476;27;20047;-68
2022/09/10 04:48:24;;;;;;;24.38;16.80;;;14.60;99.90;;;;;;5107673;28;20509;-66
2022/09/10 04:50:50;;;;;;;21.40;17.13;;;14.60;99.90;;;;;;5124747;27;20043;-66
2022/09/10 04:53:16;;;;;;;22.02;15.57;;;14.60;99.90;;;;;;5119646;27;20043;-65
2022/09/10 04:55:44;;;;;;;25.02;17.05;;;14.60;99.90;;;;;;5116546;27;20051;-66
2022/09/10 04:58:10;;;;;;;19.10;16.00;;;14.60;99.90;;;;;;5091917;28;20108;-67
2022/09/10 05:00:38;;;;;;;27.15;16.42;;;14.60;99.90;;;;;;5119707;27;20508;-65
2022/09/10 05:03:04;;;;;;;23.77;17.02;;;14.60;99.90;;;;;;5114314;27;20146;-66
2022/09/10 05:05:31;;;;;;;23.55;15.73;;;14.60;99.90;;;;;;5100708;28;20038;-66
2022/09/10 05:07:58;;;;;;;24.70;15.68;;;14.60;99.90;;;;;;5109959;28;20051;-65
2022/09/10 05:10:27;;;;;;;23.40;16.55;;;14.60;99.90;;;;;;5109896;28;20051;-67
2022/09/10 05:12:53;;;;;;;23.35;17.08;;;14.60;99.90;;;;;;5092963;28;20516;-67
2022/09/10 05:15:19;;;;;;;24.10;16.80;;;14.60;99.90;;;;;;5109616;28;20054;-67
2022/09/10 05:17:46;;;;;;;28.50;17.70;;;14.60;99.90;;;;;;5112677;27;20525;-65
2022/09/10 05:20:12;;;;;;;22.67;17.10;;;14.60;99.90;;;;;;5122894;27;20478;-65
2022/09/10 05:22:37;;;;;;;25.25;17.48;;;14.60;99.90;;;;;;5116448;27;20038;-66
2022/09/10 05:25:03;;;;;;;26.55;16.17;;;14.60;99.90;;;;;;5114685;27;20496;-66
2022/09/10 05:27:29;;;;;;;23.52;16.58;;;14.60;99.90;;;;;;5111820;27;20035;-67
2022/09/10 05:29:56;;;;;;;20.30;16.15;;;14.70;99.90;;;;;;5114675;27;20387;-65
2022/09/10 05:32:22;;;;;;;26.42;17.30;;;14.70;99.90;;;;;;5110872;28;20043;-66
2022/09/10 05:34:48;;;;;;;27.25;18.33;;;14.70;99.90;;;;;;5129809;27;20463;-65
2022/09/10 05:37:14;;;;;;;26.60;17.30;;;14.70;99.90;;;;;;5121389;27;20135;-67
2022/09/10 05:39:40;;;;;;;23.95;16.98;;;14.70;99.90;;;;;;5109897;28;20055;-68
2022/09/10 05:42:06;;;;;;;21.52;17.42;;;14.70;99.90;;;;;;5096439;28;20105;-66
2022/09/10 05:44:32;;;;;;;21.20;17.70;;;14.70;99.90;;;;;;5130320;27;20047;-65
2022/09/10 05:46:58;;;;;;;19.70;16.83;;;14.70;99.90;;;;;;5131743;27;20048;-66
2022/09/10 05:49:24;;;;;;;22.30;17.15;;;14.70;99.90;;;;;;5117727;27;20035;-67
2022/09/10 05:51:50;;;;;;;26.92;18.50;;;14.70;99.90;;;;;;5122504;27;20061;-67
2022/09/10 05:54:16;;;;;;;23.67;17.58;;;14.80;99.90;;;;;;5123661;27;20074;-65
2022/09/10 05:56:41;;;;;;;20.67;17.42;;;14.80;99.90;;;;;;5118279;27;20499;-68
2022/09/10 05:59:08;;;;;;;29.40;19.13;;;14.80;99.90;;;;;;5115275;27;20048;-68
2022/09/10 06:01:34;;;;;;;26.50;18.60;;;14.80;99.90;;;;;;5119286;27;20563;-68
2022/09/10 06:04:00;;;;;;;30.02;17.73;;;14.80;99.90;;;;;;5115651;27;20031;-66
2022/09/10 06:06:27;;;;;;;25.70;18.30;;;14.80;99.90;;;;;;5110586;27;20115;-66
2022/09/10 06:08:54;;;;;;;24.48;17.52;;;14.90;99.90;;;;;;5110070;28;20476;-68
2022/09/10 06:11:20;;;;;;;26.40;18.33;;;14.90;99.90;;;;;;5109827;27;20043;-67
2022/09/10 06:13:46;;;;;;;29.35;19.25;;;14.90;99.90;;;;;;5106482;28;20047;-67
2022/09/10 06:16:12;;;;;;;28.98;19.23;;;15.00;99.90;;;;;;5129775;27;20039;-67
2022/09/10 06:18:38;;;;;;;25.40;18.45;;;15.00;99.90;;;;;;5121872;27;20390;-69
2022/09/10 06:21:13;;;;;;;26.67;18.67;;;15.00;99.90;;;;;;5116940;27;20050;-66
2022/09/10 06:23:39;;;;;;;32.47;20.15;;;15.10;99.90;;;;;;5124005;27;20035;-67
2022/09/10 06:26:09;;;;;;;28.23;18.83;;;15.10;99.90;;;;;;5128419;27;20385;-67
2022/09/10 06:28:35;;;;;;;30.02;20.00;;;15.10;99.90;;;;;;5121011;27;20080;-67
2022/09/10 06:31:03;;;;;;;25.30;18.83;;;15.10;99.90;;;;;;5114299;27;20044;-67
2022/09/10 06:33:29;;;;;;;37.30;18.98;;;15.10;99.90;;;;;;5129298;27;20116;-65
2022/09/10 06:35:56;;;;;;;30.33;18.75;;;15.20;99.90;;;;;;5107752;28;20456;-66
2022/09/10 06:38:29;;;;;;;25.38;18.50;;;15.20;99.90;;;;;;5119103;27;20421;-67
2022/09/10 06:40:58;;;;;;;27.17;19.42;;;15.30;99.90;;;;;;5106943;28;20079;-67
2022/09/10 06:43:27;;;;;;;26.17;20.42;;;15.30;99.90;;;;;;5130119;27;20087;-67
2022/09/10 06:45:53;;;;;;;26.70;18.48;;;15.30;99.90;;;;;;5125586;27;20047;-68
2022/09/10 06:48:26;;;;;;;28.67;19.27;;;15.30;99.90;;;;;;5109777;28;20414;-65
2022/09/10 06:50:57;;;;;;;28.63;18.48;;;15.40;99.90;;;;;;5111853;27;20036;-65
2022/09/10 06:53:24;;;;;;;26.80;20.08;;;15.40;99.90;;;;;;5116506;27;20050;-67
2022/09/10 06:55:54;;;;;;;26.95;18.95;;;15.50;99.90;;;;;;5120148;27;20505;-64
2022/09/10 06:58:22;;;;;;;25.50;19.13;;;15.50;99.90;;;;;;5128560;27;20066;-67
2022/09/10 07:00:48;;;;;;;27.63;19.48;;;15.50;99.90;;;;;;5111260;27;20055;-67
2022/09/10 07:03:15;;;;;;;25.15;18.13;;;15.60;99.90;;;;;;5109278;28;20398;-67
2022/09/10 07:05:42;;;;;;;28.42;18.77;;;15.60;99.90;;;;;;5107988;27;20496;-65
2022/09/10 07:08:11;;;;;;;23.38;17.70;;;15.70;99.90;;;;;;5114206;27;20039;-66
2022/09/10 07:10:37;;;;;;;30.58;20.40;;;15.70;99.90;;;;;;5109870;27;20174;-67
2022/09/10 07:13:04;;;;;;;29.23;20.88;;;15.70;99.90;;;;;;5112750;27;20035;-67
2022/09/10 07:15:29;;;;;;;26.55;18.15;;;15.80;99.90;;;;;;5128500;27;20121;-65
2022/09/10 07:17:55;;;;;;;25.52;18.33;;;15.80;99.90;;;;;;5127513;27;20110;-66
2022/09/10 07:20:26;;;;;;;27.38;20.05;;;15.80;99.90;;;;;;5104966;28;20047;-67
2022/09/10 07:22:54;;;;;;;26.45;18.92;;;15.80;99.90;;;;;;5105976;27;20096;-66
2022/09/10 07:25:23;;;;;;;29.45;18.95;;;15.80;99.90;;;;;;5104696;28;20044;-65
2022/09/10 07:27:49;;;;;;;28.73;18.65;;;15.80;99.90;;;;;;5126929;27;20486;-66
2022/09/10 07:30:16;;;;;;;26.25;19.17;;;15.90;99.90;;;;;;5125823;27;20107;-66
2022/09/10 07:32:42;;;;;;;23.25;18.55;;;15.90;99.90;;;;;;5129196;27;20042;-65
2022/09/10 07:35:08;;;;;;;25.42;18.70;;;15.90;99.90;;;;;;5130039;27;20436;-67
2022/09/10 07:37:34;;;;;;;27.98;19.38;;;15.90;99.90;;;;;;5129926;27;20393;-67
2022/09/10 07:40:00;;;;;;;23.40;18.38;;;16.00;99.90;;;;;;5129157;27;20093;-67
2022/09/10 07:42:25;;;;;;;24.00;18.02;;;16.00;99.90;;;;;;5112445;28;20088;-65
2022/09/10 07:44:51;;;;;;;25.20;19.55;;;16.00;99.90;;;;;;5126118;28;20046;-69
2022/09/10 07:47:17;;;;;;;24.27;18.58;;;16.00;99.90;;;;;;5111876;28;20055;-68
2022/09/10 07:49:46;;;;;;;19.88;16.63;;;16.10;99.90;;;;;;5129572;28;20050;-66
2022/09/10 07:52:12;;;;;;;25.98;17.77;;;16.10;99.90;;;;;;5119831;28;20051;-69
2022/09/10 07:54:38;;;;;;;22.98;16.33;;;16.20;99.90;;;;;;5122743;28;20031;-65
2022/09/10 07:57:04;;;;;;;23.30;16.52;;;16.30;99.90;;;;;;5129339;28;20043;-65
2022/09/10 07:59:30;;;;;;;22.90;15.98;;;16.40;99.90;;;;;;5130044;27;20108;-65
2022/09/10 08:01:58;;;;;;;21.33;15.43;;;16.40;99.90;;;;;;5127599;28;20374;-65
2022/09/10 08:04:23;;;;;;;17.67;14.00;;;16.50;99.90;;;;;;5108293;28;20109;-64
2022/09/10 08:06:50;;;;;;;15.02;13.40;;;16.50;99.90;;;;;;5112566;27;20031;-67
2022/09/10 08:09:18;;;;;;;13.95;10.00;;;16.50;99.90;;;;;;5131940;27;20079;-66
2022/09/10 08:11:43;;;;;;;13.13;10.20;;;16.60;99.90;;;;;;5116581;27;20035;-65
2022/09/10 08:14:09;;;;;;;15.20;10.20;;;16.70;99.90;;;;;;5118033;27;20092;-64
2022/09/10 08:16:35;;;;;;;13.15;9.30;;;16.80;99.90;;;;;;5122800;27;20051;-66
2022/09/10 08:19:01;;;;;;;16.13;10.10;;;16.80;99.90;;;;;;5132213;27;20401;-67
2022/09/10 08:21:29;;;;;;;13.60;10.02;;;16.80;99.90;;;;;;5116322;27;20047;-65
2022/09/10 08:23:54;;;;;;;14.20;10.07;;;16.80;99.90;;;;;;5125548;27;20035;-65
2022/09/10 08:26:22;;;;;;;16.27;10.40;;;16.90;99.90;;;;;;5130685;27;20043;-66
2022/09/10 08:28:49;;;;;;;11.82;10.25;;;16.90;99.90;;;;;;5134395;27;20035;-68
2022/09/10 08:31:15;;;;;;;14.27;11.05;;;17.00;99.90;;;;;;5133067;27;20043;-68
2022/09/10 08:33:46;;;;;;;16.42;12.10;;;17.00;99.90;;;;;;5115361;27;20171;-66
2022/09/10 08:36:13;;;;;;;17.27;11.40;;;17.00;99.90;;;;;;5111831;28;20040;-68
2022/09/10 08:38:40;;;;;;;15.35;11.02;;;17.00;99.90;;;;;;5113689;28;20040;-66
2022/09/10 08:41:22;;;;;;;13.02;10.15;;;16.90;99.90;;;;;;5132533;27;20176;-67
2022/09/10 08:43:54;;;;;;;14.20;9.95;;;16.90;99.90;;;;;;5132952;27;20115;-67
2022/09/10 08:46:26;;;;;;;15.68;11.38;;;16.90;99.90;;;;;;5098271;28;20032;-67
2022/09/10 08:49:20;;;;;;;16.83;11.80;;;16.90;99.90;;;;;;5109845;28;20040;-67
2022/09/10 08:51:57;;;;;;;13.77;10.40;;;17.10;99.90;;;;;;5120119;27;20043;-66
2022/09/10 08:54:36;;;;;;;12.25;9.85;;;17.50;99.90;;;;;;5132601;27;20091;-66
2022/09/10 08:57:04;;;;;;;11.88;9.50;;;18.00;99.90;;;;;;5114319;27;20056;-66
2022/09/10 08:59:36;;;;;;;12.43;8.40;;;18.30;99.90;;;;;;5131221;27;20073;-65
2022/09/10 09:02:21;;;;;;;12.75;9.13;;;18.50;99.90;;;;;;5114792;27;20054;-68
2022/09/10 09:04:58;;;;;;;10.90;9.48;;;18.50;99.90;;;;;;5133776;27;20550;-65
2022/09/10 09:07:33;;;;;;;12.38;9.35;;;18.30;99.90;;;;;;5116900;27;20035;-68
2022/09/10 09:09:59;;;;;;;13.00;9.40;;;18.10;99.90;;;;;;5111033;28;20059;-68
2022/09/10 09:12:34;;;;;;;18.58;11.65;;;18.10;99.90;;;;;;5113081;28;20028;-66
2022/09/10 09:15:18;;;;;;;13.65;11.40;;;18.20;99.90;;;;;;5130402;27;20389;-65
2022/09/10 09:17:50;;;;;;;12.75;10.70;;;18.50;99.90;;;;;;5118692;27;20089;-69
2022/09/10 09:20:31;;;;;;;10.85;8.70;;;18.90;99.90;;;;;;5132152;27;20131;-65
2022/09/10 09:23:20;;;;;;;8.90;6.05;;;19.00;99.90;;;;;;5132320;27;20494;-66
2022/09/10 09:26:09;;;;;;;8.70;7.55;;;19.10;99.90;;;;;;5131730;27;20493;-65
2022/09/10 09:28:49;;;;;;;10.73;7.60;;;19.00;99.90;;;;;;5108596;27;20118;-67
2022/09/10 09:31:26;;;;;;;9.32;6.72;;;18.90;99.90;;;;;;5110751;28;20144;-66
2022/09/10 09:33:57;;;;;;;9.65;7.20;;;19.10;99.90;;;;;;5112908;28;20529;-68
2022/09/10 09:36:30;;;;;;;11.57;8.73;;;19.40;99.90;;;;;;5131140;27;20484;-64
2022/09/10 09:38:55;;;;;;;13.38;8.88;;;19.70;99.90;;;;;;5102396;28;20087;-68
2022/09/10 09:41:58;;;;;;;12.30;8.07;;;19.90;99.90;;;;;;5098396;28;20108;-66
2022/09/10 09:44:33;;;;;;;9.15;7.82;;;20.00;99.90;;;;;;5109786;28;20178;-68
2022/09/10 09:46:59;;;;;;;11.15;6.88;;;19.90;99.90;;;;;;5130254;27;20043;-65
2022/09/10 09:49:25;;;;;;;8.98;6.90;;;19.80;99.90;;;;;;5131636;27;20386;-67
2022/09/10 09:51:52;;;;;;;12.38;7.55;;;19.90;99.90;;;;;;5124195;27;20065;-65
2022/09/10 09:54:22;;;;;;;9.80;6.25;;;20.30;99.90;;;;;;5111731;27;20431;-66
2022/09/10 09:56:53;;;;;;;6.45;5.40;;;20.70;99.90;;;;;;5130347;27;20438;-66
2022/09/10 09:59:25;;;;;;;8.75;5.63;;;20.90;99.90;;;;;;5131504;27;20047;-64
2022/09/10 10:01:53;;;;;;;7.35;5.38;;;21.00;99.90;;;;;;5129867;27;20117;-66
2022/09/10 10:04:25;;;;;;;7.47;5.03;;;21.00;99.90;;;;;;5110703;28;20044;-68
2022/09/10 10:06:59;;;;;;;6.45;4.43;;;20.80;99.90;;;;;;5130100;27;20449;-64
2022/09/10 10:09:28;;;;;;;5.75;3.40;;;20.80;99.90;;;;;;5131064;27;20175;-68
2022/09/10 10:11:58;;;;;;;6.97;4.50;;;20.90;99.90;;;;;;5131376;27;20389;-67
2022/09/10 10:14:29;;;;;;;7.20;4.60;;;20.90;99.90;;;;;;5114450;27;20466;-67
2022/09/10 10:16:56;;;;;;;6.60;4.78;;;21.10;99.90;;;;;;5109330;28;20512;-66
2022/09/10 10:19:32;;;;;;;7.93;4.60;;;21.20;99.90;;;;;;5106696;28;20516;-63
2022/09/10 10:22:13;;;;;;;6.38;4.30;;;21.00;99.90;;;;;;5130240;27;20868;-66
2022/09/10 10:24:46;;;;;;;6.28;3.95;;;20.80;99.90;;;;;;5131100;27;20468;-67
2022/09/10 10:27:40;;;;;;;8.45;4.50;;;20.60;99.90;;;;;;5118492;27;20509;-67
2022/09/10 10:30:17;;;;;;;6.50;4.50;;;20.50;99.90;;;;;;5027255;28;20054;-66
2022/09/10 10:32:51;;;;;;;7.18;4.38;;;20.40;99.90;;;;;;4995526;28;20124;-66
2022/09/10 10:35:17;;;;;;;8.15;4.70;;;20.30;99.90;;;;;;4994955;28;20045;-65
2022/09/10 10:38:02;;;;;;;6.68;5.10;;;20.30;99.90;;;;;;5011863;28;20503;-65
2022/09/10 10:41:04;;;;;;;6.82;4.82;;;20.40;99.90;;;;;;5011815;28;20056;-69
2022/09/10 10:44:07;;;;;;;7.60;5.35;;;20.60;99.90;;;;;;4953424;28;20058;-65
2022/09/10 10:46:44;;;;;;;7.68;5.63;;;20.90;99.90;;;;;;4953093;28;20054;-67
2022/09/10 10:49:30;;;;;;;5.85;4.60;;;21.10;99.90;;;;;;4953150;28;20088;-67
2022/09/10 10:52:23;;;;;;;7.30;5.10;;;21.60;99.90;;;;;;4953222;28;20105;-65
2022/09/10 10:54:52;;;;;;;7.05;4.57;;;22.00;99.90;;;;;;4952947;28;20066;-67
2022/09/10 10:57:25;;;;;;;7.15;4.40;;;22.40;99.90;;;;;;4953485;28;20106;-64
2022/09/10 11:00:11;;;;;;;6.85;4.30;;;22.60;99.90;;;;;;4952855;28;20066;-66
2022/09/10 11:02:53;;;;;;;6.95;4.03;;;22.70;99.90;;;;;;4953093;28;20057;-67
2022/09/10 11:05:33;;;;;;;5.00;3.50;;;22.90;99.90;;;;;;4953270;28;20034;-68
2022/09/10 11:08:05;;;;;;;4.68;2.90;;;23.20;99.90;;;;;;5022087;28;20036;-67
2022/09/10 11:10:38;;;;;;;7.20;3.75;;;23.30;99.90;;;;;;5030851;28;20128;-67
2022/09/10 11:13:24;;;;;;;6.82;4.20;;;23.50;99.90;;;;;;5031047;28;20124;-65
2022/09/10 11:16:04;;;;;;;4.53;3.40;;;23.60;99.90;;;;;;5031400;28;20129;-67
2022/09/10 11:18:41;;;;;;;4.70;2.60;;;23.90;99.90;;;;;;5031462;28;20487;-69
2022/09/10 11:21:33;;;;;;;5.93;3.40;;;24.20;99.90;;;;;;5108797;28;20055;-68
2022/09/10 11:24:18;;;;;;;6.50;3.60;;;24.40;99.90;;;;;;5110618;27;20036;-66
2022/09/10 11:26:57;;;;;;;4.70;3.55;;;24.60;99.90;;;;;;5108384;28;20122;-66
2022/09/10 11:29:34;;;;;;;6.97;3.50;;;24.80;99.90;;;;;;5129197;27;20386;-66
2022/09/10 11:32:18;;;;;;;4.60;3.28;;;24.80;99.90;;;;;;5099225;28;20051;-67
2022/09/10 11:35:02;;;;;;;6.32;3.50;;;24.70;99.90;;;;;;5118981;27;20039;-66
2022/09/10 11:37:30;;;;;;;5.85;3.30;;;24.70;99.90;;;;;;5107179;28;20035;-66
2022/09/10 11:40:00;;;;;;;4.82;2.92;;;24.30;99.90;;;;;;5128309;27;20480;-67
2022/09/10 11:42:39;;;;;;;3.90;3.00;;;24.00;99.90;;;;;;5116719;28;20052;-65
2022/09/10 11:45:27;;;;;;;4.65;3.42;;;23.60;99.90;;;;;;5111954;28;20387;-67
2022/09/10 11:48:09;;;;;;;5.05;4.00;;;23.50;99.90;;;;;;5091262;28;20612;-66
2022/09/10 11:50:42;;;;;;;;;;;23.40;99.90;;;;;;5128874;28;20392;-67
2022/09/10 11:53:13;;;;;;;5.78;4.13;;;23.30;99.90;;;;;;5106207;28;19919;-67
2022/09/10 11:56:13;;;;;;;6.70;3.70;;;23.20;99.90;;;;;;5109507;28;20036;-66
2022/09/10 11:58:45;;;;;;;5.55;3.83;;;23.30;99.90;;;;;;5129315;28;20051;-67
2022/09/10 12:01:35;;;;;;;7.90;3.92;;;23.20;99.90;;;;;;5108642;28;20040;-68
2022/09/10 12:04:25;;;;;;;10.05;3.92;;;22.80;99.90;;;;;;5115235;28;20036;-68
2022/09/10 12:07:16;;;;;;;5.57;3.55;;;22.50;99.90;;;;;;5108494;28;20043;-63
2022/09/10 12:10:04;;;;;;;6.07;3.47;;;22.30;99.90;;;;;;5107600;28;20051;-67
2022/09/10 12:12:44;;;;;;;6.20;3.85;;;22.20;99.90;;;;;;5111701;28;20038;-66
2022/09/10 12:15:30;;;;;;;7.80;3.65;;;22.20;99.90;;;;;;5111459;28;20040;-66
2022/09/10 12:18:05;;;;;;;6.15;3.70;;;22.00;99.90;;;;;;5121930;28;20513;-67
2022/09/10 12:20:37;;;;;;;4.43;3.70;;;21.80;99.90;;;;;;5104595;28;20126;-66
2022/09/10 12:23:04;;;;;;;6.25;3.25;;;21.70;99.90;;;;;;5128737;28;20035;-66
2022/09/10 12:25:31;;;;;;;6.32;3.92;;;21.70;99.90;;;;;;5114979;28;20031;-66
2022/09/10 12:28:04;;;;;;;4.47;3.45;;;21.60;99.90;;;;;;5108872;28;20049;-65
2022/09/10 12:30:30;;;;;;;7.85;3.97;;;21.50;99.90;;;;;;5127963;28;20042;-64
2022/09/10 12:33:23;;;;;;;4.68;3.38;;;21.50;99.90;;;;;;5129448;28;20433;-65
2022/09/10 12:35:50;;;;;;;7.07;3.40;;;21.50;99.90;;;;;;5019370;28;20152;-68
2022/09/10 12:38:44;;;;;;;7.03;3.53;;;21.60;99.90;;;;;;5027621;28;20515;-68
2022/09/10 12:41:34;;;;;;;5.50;3.10;;;21.60;99.90;;;;;;5010851;28;20119;-66
2022/09/10 12:44:01;;;;;;;6.07;3.42;;;21.70;99.90;;;;;;5025625;28;20396;-65
2022/09/10 12:46:30;;;;;;;4.28;2.83;;;21.70;99.90;;;;;;5010532;28;20045;-67
2022/09/10 12:48:56;;;;;;;5.65;3.53;;;21.70;99.90;;;;;;5027184;28;20046;-65
2022/09/10 12:51:55;;;;;;;7.97;3.50;;;21.70;99.90;;;;;;4991955;28;21631;-66
2022/09/10 12:54:45;;;;;;;5.82;3.80;;;21.50;99.90;;;;;;5029917;28;20049;-67